createdAt,value
2022-12-13T00:03:43.477Z,0.98
2022-12-13T00:12:21.312Z,0.90
2022-12-13T00:14:56.235Z,1.00
2022-12-13T00:17:26.502Z,0.90
2022-12-13T00:20:03.378Z,0.90
2022-12-13T00:22:38.109Z,1.10
2022-12-13T00:25:11.021Z,0.90
2022-12-13T00:27:48.778Z,1.10
2022-12-13T00:33:26.138Z,0.93
2022-12-13T00:35:57.585Z,0.93
2022-12-13T00:41:29.001Z,0.90
2022-12-13T00:44:08.513Z,1.10
2022-12-13T00:46:50.961Z,1.00
2022-12-13T00:49:22.689Z,1.10
2022-12-13T00:51:52.723Z,0.90
2022-12-13T00:54:23.657Z,1.13
2022-12-13T00:56:54.248Z,1.07
2022-12-13T00:59:29.017Z,0.90
2022-12-13T01:02:01.799Z,1.10
2022-12-13T01:04:37.342Z,1.10
2022-12-13T01:07:18.340Z,0.90
2022-12-13T01:10:03.107Z,0.80
2022-12-13T01:12:34.008Z,1.00
2022-12-13T01:15:04.404Z,1.10
2022-12-13T01:17:35.923Z,1.00
2022-12-13T01:20:09.879Z,1.00
2022-12-13T01:22:40.075Z,1.30
2022-12-13T01:25:16.695Z,2.12
2022-12-13T01:27:58.628Z,1.90
2022-12-13T01:30:34.046Z,1.30
2022-12-13T01:33:16.780Z,1.40
2022-12-13T01:35:56.407Z,1.67
2022-12-13T01:38:40.366Z,1.37
2022-12-13T01:41:17.539Z,1.63
2022-12-13T01:43:56.681Z,1.37
2022-12-13T01:49:28.709Z,2.00
2022-12-13T01:53:00.896Z,2.00
2022-12-13T01:55:41.803Z,1.67
2022-12-13T01:58:11.697Z,1.37
2022-12-13T02:00:54.445Z,1.50
2022-12-13T02:03:25.051Z,1.60
2022-12-13T02:06:13.537Z,1.53
2022-12-13T02:11:35.232Z,1.85
2022-12-13T02:25:04.075Z,1.90
2022-12-13T02:34:11.919Z,1.40
2022-12-13T02:37:02.900Z,1.70
2022-12-13T02:39:49.641Z,1.52
2022-12-13T02:45:50.692Z,1.30
2022-12-13T02:49:02.379Z,1.74
2022-12-13T02:54:37.466Z,1.30
2022-12-13T02:57:30.308Z,1.63
2022-12-13T03:00:22.507Z,1.52
2022-12-13T03:03:04.876Z,1.50
2022-12-13T03:09:41.224Z,1.55
2022-12-13T03:12:04.871Z,1.50
2022-12-13T03:14:37.407Z,1.57
2022-12-13T03:17:17.385Z,1.60
2022-12-13T03:19:55.187Z,1.80
2022-12-13T03:22:35.425Z,1.57
2022-12-13T03:25:10.173Z,1.65
2022-12-13T03:27:44.273Z,1.70
2022-12-13T03:30:20.816Z,2.08
2022-12-13T03:35:56.807Z,1.95
2022-12-13T03:38:36.809Z,1.72
2022-12-13T03:41:13.325Z,1.90
2022-12-13T03:43:49.177Z,1.95
2022-12-13T03:46:20.526Z,1.77
2022-12-13T03:48:55.755Z,1.70
2022-12-13T03:51:30.134Z,1.67
2022-12-13T03:54:01.483Z,1.77
2022-12-13T03:56:48.151Z,1.60
2022-12-13T03:59:34.620Z,1.66
2022-12-13T04:02:07.860Z,1.57
2022-12-13T04:04:39.224Z,1.45
2022-12-13T04:07:21.901Z,1.75
2022-12-13T04:09:46.426Z,1.60
2022-12-13T04:13:11.160Z,1.70
2022-12-13T04:15:48.259Z,1.40
2022-12-13T04:18:27.378Z,1.57
2022-12-13T04:24:03.384Z,1.24
2022-12-13T04:26:36.727Z,1.60
2022-12-13T04:29:12.562Z,1.40
2022-12-13T04:31:43.960Z,1.40
2022-12-13T04:34:21.531Z,1.40
2022-12-13T04:37:00.334Z,1.37
2022-12-13T04:39:34.501Z,1.50
2022-12-13T04:42:10.077Z,1.40
2022-12-13T04:44:46.240Z,1.30
2022-12-13T04:47:22.927Z,1.20
2022-12-13T04:49:54.519Z,1.30
2022-12-13T04:52:25.608Z,1.30
2022-12-13T04:54:58.983Z,1.15
2022-12-13T04:57:44.607Z,1.50
2022-12-13T05:00:20.680Z,1.00
2022-12-13T05:02:56.125Z,1.10
2022-12-13T05:05:31.537Z,1.23
2022-12-13T05:08:13.356Z,0.90
2022-12-13T05:10:44.723Z,1.10
2022-12-13T05:13:28.997Z,1.20
2022-12-13T05:16:16.924Z,1.07
2022-12-13T05:22:01.521Z,1.10
2022-12-13T05:24:32.160Z,1.20
2022-12-13T05:27:24.508Z,1.30
2022-12-13T05:29:38.349Z,1.20
2022-12-13T05:32:10.199Z,1.30
2022-12-13T05:34:40.989Z,1.02
2022-12-13T05:37:10.979Z,1.00
2022-12-13T05:39:41.207Z,1.05
2022-12-13T05:42:12.492Z,1.00
2022-12-13T05:44:42.791Z,1.00
2022-12-13T05:47:25.765Z,1.05
2022-12-13T05:49:56.624Z,1.02
2022-12-13T05:52:31.239Z,0.88
2022-12-13T05:55:02.216Z,0.98
2022-12-13T05:57:32.170Z,1.07
2022-12-13T06:00:29.065Z,1.05
2022-12-13T06:02:45.882Z,0.95
2022-12-13T06:05:18.229Z,0.75
2022-12-13T06:07:55.103Z,0.90
2022-12-13T06:10:23.078Z,1.02
2022-12-13T06:12:54.212Z,1.02
2022-12-13T06:15:25.959Z,0.95
2022-12-13T06:17:57.418Z,1.00
2022-12-13T06:20:39.247Z,1.00
2022-12-13T06:23:10.241Z,0.77
2022-12-13T06:25:42.455Z,0.90
2022-12-13T06:28:12.492Z,0.93
2022-12-13T06:31:01.266Z,0.80
2022-12-13T06:33:31.354Z,0.80
2022-12-13T06:36:05.658Z,0.82
2022-12-13T06:38:43.549Z,1.00
2022-12-13T06:41:15.116Z,0.80
2022-12-13T06:43:46.092Z,0.70
2022-12-13T06:46:16.687Z,0.80
2022-12-13T06:48:46.843Z,0.90
2022-12-13T06:51:22.806Z,0.62
2022-12-13T06:53:53.133Z,0.80
2022-12-13T06:56:29.832Z,0.72
2022-12-13T06:59:02.475Z,0.70
2022-12-13T07:01:36.753Z,0.80
2022-12-13T07:04:29.657Z,0.70
2022-12-13T07:09:33.595Z,0.60
2022-12-13T07:12:05.100Z,0.60
2022-12-13T07:14:42.047Z,0.70
2022-12-13T07:17:12.208Z,0.60
2022-12-13T07:19:46.000Z,0.70
2022-12-13T07:22:22.046Z,0.60
2022-12-13T07:25:07.412Z,0.60
2022-12-13T07:27:39.175Z,0.70
2022-12-13T07:30:11.199Z,0.80
2022-12-13T07:32:41.960Z,0.70
2022-12-13T07:35:12.630Z,0.50
2022-12-13T07:37:45.867Z,0.50
2022-12-13T07:40:16.609Z,0.62
2022-12-13T07:42:56.856Z,0.53
2022-12-13T07:45:29.008Z,0.60
2022-12-13T07:47:59.591Z,0.50
2022-12-13T07:50:36.897Z,0.60
2022-12-13T07:53:04.715Z,0.60
2022-12-13T07:55:35.287Z,0.60
2022-12-13T07:58:08.265Z,0.50
2022-12-13T08:00:39.180Z,0.40
2022-12-13T08:03:17.977Z,0.40
2022-12-13T08:05:44.424Z,0.50
2022-12-13T08:08:19.141Z,0.50
2022-12-13T08:10:51.739Z,0.52
2022-12-13T08:13:25.345Z,0.47
2022-12-13T08:16:03.352Z,0.60
2022-12-13T08:18:35.409Z,0.40
2022-12-13T08:21:30.426Z,0.40
2022-12-13T08:23:40.615Z,0.60
2022-12-13T08:26:10.839Z,0.60
2022-12-13T08:28:42.902Z,0.43
2022-12-13T08:31:15.349Z,0.47
2022-12-13T08:33:49.563Z,0.50
2022-12-13T08:36:20.668Z,0.55
2022-12-13T08:38:57.925Z,0.58
2022-12-13T08:41:39.599Z,0.50
2022-12-13T08:44:09.836Z,0.60
2022-12-13T08:46:44.846Z,0.50
2022-12-13T08:49:19.470Z,0.40
2022-12-13T08:51:50.902Z,0.40
2022-12-13T08:54:31.670Z,0.50
2022-12-13T08:57:02.574Z,0.47
2022-12-13T08:59:32.786Z,0.50
2022-12-13T09:02:05.538Z,0.55
2022-12-13T09:04:35.134Z,0.40
2022-12-13T09:07:07.322Z,0.40
2022-12-13T09:09:38.612Z,0.50
2022-12-13T09:12:10.965Z,0.30
2022-12-13T09:14:45.541Z,0.40
2022-12-13T09:17:24.118Z,0.40
2022-12-13T09:19:48.431Z,0.40
2022-12-13T09:22:33.579Z,0.35
2022-12-13T09:24:52.949Z,0.40
2022-12-13T09:27:28.772Z,0.30
2022-12-13T09:30:01.818Z,0.40
2022-12-13T09:32:32.760Z,0.40
2022-12-13T09:35:04.981Z,0.40
2022-12-13T09:37:42.545Z,0.40
2022-12-13T09:40:25.232Z,0.30
2022-12-13T09:42:47.910Z,0.40
2022-12-13T09:45:22.148Z,0.30
2022-12-13T09:47:52.234Z,0.40
2022-12-13T09:50:38.182Z,0.38
2022-12-13T09:53:12.121Z,0.30
2022-12-13T09:56:10.220Z,0.40
2022-12-13T09:58:34.412Z,0.33
2022-12-13T10:01:23.065Z,0.30
2022-12-13T10:03:53.779Z,0.37
2022-12-13T10:06:25.483Z,0.43
2022-12-13T10:11:53.848Z,0.40
2022-12-13T10:14:27.352Z,0.40
2022-12-13T10:16:59.193Z,0.30
2022-12-13T10:19:41.812Z,0.30
2022-12-13T10:22:14.130Z,0.20
2022-12-13T10:25:01.673Z,0.30
2022-12-13T10:27:48.097Z,0.30
2022-12-13T10:30:27.972Z,0.30
2022-12-13T10:32:58.368Z,0.40
2022-12-13T10:35:37.029Z,0.30
2022-12-13T10:38:13.782Z,0.20
2022-12-13T10:40:48.636Z,0.30
2022-12-13T10:43:42.804Z,0.40
2022-12-13T10:46:17.920Z,0.30
2022-12-13T10:48:59.555Z,0.30
2022-12-13T10:51:33.647Z,0.30
2022-12-13T10:54:05.678Z,0.35
2022-12-13T10:56:40.229Z,0.30
2022-12-13T10:59:17.681Z,0.20
2022-12-13T11:05:34.797Z,0.30
2022-12-13T11:08:28.812Z,0.40
2022-12-13T11:11:28.652Z,0.30
2022-12-13T11:14:06.666Z,0.30
2022-12-13T11:16:43.405Z,0.30
2022-12-13T11:19:32.586Z,0.30
2022-12-13T11:23:00.682Z,0.40
2022-12-13T11:25:38.927Z,0.25
2022-12-13T11:28:39.871Z,0.40
2022-12-13T11:31:42.378Z,0.20
2022-12-13T11:37:43.761Z,0.20
2022-12-13T11:43:39.106Z,0.20
2022-12-13T12:00:02.201Z,0.20
2022-12-13T12:02:57.408Z,0.30
2022-12-13T12:08:55.622Z,0.30
2022-12-13T12:15:27.540Z,0.40
2022-12-13T12:20:58.293Z,0.30
2022-12-13T12:23:38.581Z,0.30
2022-12-13T12:26:12.377Z,0.20
2022-12-13T12:28:54.704Z,0.20
2022-12-13T12:31:51.078Z,0.20
2022-12-13T12:34:37.957Z,0.20
2022-12-13T12:37:24.692Z,0.30
2022-12-13T12:43:15.352Z,0.17
2022-12-13T12:45:58.401Z,0.30
2022-12-13T12:49:02.425Z,0.25
2022-12-13T12:51:53.068Z,0.20
2022-12-13T12:55:07.457Z,0.20
2022-12-13T12:58:08.446Z,0.20
2022-12-13T13:00:47.140Z,0.20
2022-12-13T13:06:22.258Z,0.20
2022-12-13T13:09:03.485Z,0.17
2022-12-13T13:11:43.094Z,0.20
2022-12-13T13:14:34.290Z,0.20
2022-12-13T13:17:22.352Z,0.30
2022-12-13T13:20:26.837Z,0.30
2022-12-13T13:23:39.013Z,0.20
2022-12-13T16:16:26.729Z,0.23
2022-12-13T16:19:02.698Z,0.20
2022-12-13T16:21:32.717Z,0.20
2022-12-13T16:24:03.555Z,0.20
2022-12-13T16:30:21.610Z,0.20
2022-12-13T16:35:25.255Z,0.10
2022-12-13T16:37:59.402Z,0.20
2022-12-13T16:40:30.624Z,0.20
2022-12-13T16:43:03.007Z,0.20
2022-12-13T16:45:42.945Z,0.20
2022-12-13T16:50:39.956Z,0.20
2022-12-13T16:53:17.348Z,0.20
2022-12-13T16:55:58.222Z,0.20
2022-12-13T16:58:21.077Z,0.20
2022-12-13T17:00:58.879Z,0.25
2022-12-13T17:03:27.459Z,0.30
2022-12-13T17:05:59.200Z,0.20
2022-12-13T17:08:30.102Z,0.20
2022-12-13T17:11:00.199Z,0.20
2022-12-13T17:13:32.707Z,0.30
2022-12-13T17:16:03.084Z,0.20
2022-12-13T17:18:36.684Z,0.30
2022-12-13T17:21:10.637Z,0.20
2022-12-13T17:23:43.005Z,0.20
2022-12-13T17:26:14.140Z,0.20
2022-12-13T17:28:45.075Z,0.30
2022-12-13T17:31:15.964Z,0.20
2022-12-13T17:33:45.972Z,0.20
2022-12-13T17:36:16.933Z,0.30
2022-12-13T17:38:47.507Z,0.10
2022-12-13T17:41:17.810Z,0.20
2022-12-13T17:43:48.418Z,0.10
2022-12-13T17:46:20.213Z,0.20
2022-12-13T17:48:51.405Z,0.20
2022-12-13T17:51:22.956Z,0.18
2022-12-13T17:53:54.428Z,0.17
2022-12-13T17:56:25.116Z,0.30
2022-12-13T17:58:57.704Z,0.10
2022-12-13T18:01:29.605Z,0.20
2022-12-13T18:03:59.736Z,0.20
2022-12-13T18:06:30.041Z,0.20
2022-12-13T18:09:00.636Z,0.30
2022-12-13T18:11:33.746Z,0.30
2022-12-13T18:14:06.369Z,0.20
2022-12-13T18:16:39.961Z,0.20
2022-12-13T18:19:11.469Z,0.20
2022-12-13T18:21:41.876Z,0.13
2022-12-13T18:24:12.620Z,0.20
2022-12-13T18:26:43.028Z,0.20
2022-12-13T18:29:13.164Z,0.17
2022-12-13T18:31:43.663Z,0.20
2022-12-13T18:34:13.786Z,0.20
2022-12-13T18:36:43.922Z,0.13
2022-12-13T18:39:14.113Z,0.20
2022-12-13T18:41:44.655Z,0.10
2022-12-13T18:44:14.962Z,0.13
2022-12-13T18:46:49.720Z,0.10
2022-12-13T18:49:23.284Z,0.30
2022-12-13T18:51:54.095Z,0.20
2022-12-13T18:54:28.612Z,0.20
2022-12-13T18:59:36.487Z,0.20
2022-12-13T19:02:07.131Z,0.10
2022-12-13T19:04:37.367Z,0.10
2022-12-13T19:07:10.756Z,0.10
2022-12-13T19:09:41.113Z,0.20
2022-12-13T19:12:13.010Z,0.10
2022-12-13T19:14:54.593Z,0.20
2022-12-13T19:17:21.806Z,0.20
2022-12-13T19:19:52.838Z,0.20
2022-12-13T19:22:24.195Z,0.20
2022-12-13T19:24:54.941Z,0.13
2022-12-13T19:27:26.129Z,0.20
2022-12-13T19:30:00.907Z,0.20
2022-12-13T19:32:31.684Z,0.10
2022-12-13T19:35:14.429Z,0.10
2022-12-13T19:37:45.171Z,0.20
2022-12-13T19:40:15.548Z,0.15
2022-12-13T19:42:46.009Z,0.10
2022-12-13T19:45:17.567Z,0.20
2022-12-13T19:47:48.867Z,0.20
2022-12-13T19:50:19.566Z,0.15
2022-12-13T19:52:49.843Z,0.20
2022-12-13T19:55:24.319Z,0.20
2022-12-13T19:57:54.981Z,0.20
2022-12-13T20:00:27.736Z,0.30
2022-12-13T20:03:09.208Z,0.20
2022-12-13T20:05:45.415Z,0.20
2022-12-13T20:08:14.414Z,0.10
2022-12-13T20:10:44.585Z,0.20
2022-12-13T20:13:14.663Z,0.20
2022-12-13T20:15:51.385Z,0.10
2022-12-13T20:18:23.106Z,0.10
2022-12-13T20:21:10.956Z,0.10
2022-12-13T20:23:27.020Z,0.10
2022-12-13T20:26:04.150Z,0.13
2022-12-13T20:28:34.426Z,0.20
2022-12-13T20:31:12.073Z,0.20
2022-12-13T20:33:45.035Z,0.10
2022-12-13T20:36:25.870Z,0.20
2022-12-13T20:38:53.663Z,0.10
2022-12-13T20:41:24.504Z,0.10
2022-12-13T20:43:55.822Z,0.10
2022-12-13T20:46:27.448Z,0.20
2022-12-13T20:48:59.089Z,0.20
2022-12-13T20:51:30.419Z,0.20
2022-12-13T20:54:00.686Z,0.20
2022-12-13T20:56:32.568Z,0.20
2022-12-13T20:59:03.449Z,0.20
2022-12-13T21:01:35.756Z,0.20
2022-12-13T21:04:06.350Z,0.23
2022-12-13T21:06:37.503Z,0.30
2022-12-13T21:09:07.662Z,0.30
2022-12-13T21:11:48.089Z,0.40
2022-12-13T21:14:29.559Z,0.30
2022-12-13T21:17:02.897Z,0.37
2022-12-13T21:19:40.510Z,0.30
2022-12-13T21:22:10.054Z,0.40
2022-12-13T21:24:40.280Z,0.33
2022-12-13T21:27:10.486Z,0.20
2022-12-13T21:29:41.156Z,0.50
2022-12-13T21:32:11.206Z,0.30
2022-12-13T21:34:41.852Z,0.30
2022-12-13T21:37:12.677Z,0.40
2022-12-13T21:39:42.719Z,0.30
2022-12-13T21:42:14.363Z,0.40
2022-12-13T21:44:44.741Z,0.30
2022-12-13T21:47:14.898Z,0.40
2022-12-13T21:49:48.602Z,0.37
2022-12-13T21:52:16.936Z,0.40
2022-12-13T21:54:52.908Z,0.28
2022-12-13T21:57:39.810Z,0.30
2022-12-13T22:00:11.856Z,0.35
2022-12-13T22:02:41.968Z,0.40
2022-12-13T22:05:12.432Z,0.35
2022-12-13T22:07:42.646Z,0.40
2022-12-13T22:10:12.792Z,0.43
2022-12-13T22:12:43.357Z,0.50
2022-12-13T22:15:15.998Z,0.50
2022-12-13T22:17:46.931Z,0.45
2022-12-13T22:20:19.092Z,0.40
2022-12-13T22:22:49.558Z,0.40
2022-12-13T22:25:24.362Z,0.40
2022-12-13T22:27:55.743Z,0.42
2022-12-13T22:30:27.061Z,0.40
2022-12-13T22:32:58.409Z,0.36
2022-12-13T22:35:30.802Z,0.45
2022-12-13T22:38:03.775Z,0.53
2022-12-13T22:40:33.762Z,0.45
2022-12-13T22:43:08.694Z,0.50
2022-12-13T22:45:38.411Z,0.50
2022-12-13T22:48:09.193Z,0.50
2022-12-13T22:50:39.736Z,0.40
2022-12-13T22:53:10.658Z,0.60
2022-12-13T22:55:42.330Z,0.50
2022-12-13T22:58:12.708Z,0.50
2022-12-13T23:00:43.760Z,0.40
2022-12-13T23:03:14.782Z,0.37
2022-12-13T23:05:46.303Z,0.55
2022-12-13T23:12:02.831Z,0.40
2022-12-13T23:14:37.810Z,0.50
2022-12-13T23:17:08.040Z,0.50
2022-12-13T23:19:49.032Z,0.60
2022-12-13T23:22:13.624Z,0.40
2022-12-13T23:24:44.536Z,0.50
2022-12-13T23:27:15.465Z,0.47
2022-12-13T23:29:47.788Z,0.42
2022-12-13T23:32:17.787Z,0.60
2022-12-13T23:34:50.591Z,0.40
2022-12-13T23:37:20.742Z,0.53
2022-12-13T23:39:50.945Z,0.60
2022-12-13T23:42:20.984Z,0.60
2022-12-13T23:44:50.963Z,0.50
2022-12-13T23:47:22.730Z,0.60
2022-12-13T23:49:53.408Z,0.65
2022-12-13T23:52:25.728Z,0.50
2022-12-13T23:55:01.241Z,0.56
2022-12-13T23:57:35.897Z,0.30
